createdAt,value
2023-01-13T00:00:01.263Z,0
2023-01-13T00:05:01.272Z,0
2023-01-13T00:10:01.231Z,0
2023-01-13T00:15:01.337Z,0
2023-01-13T00:20:01.363Z,0
2023-01-13T00:25:01.339Z,0
2023-01-13T00:30:01.352Z,0
2023-01-13T00:35:01.460Z,0
2023-01-13T00:40:01.461Z,0
2023-01-13T00:45:01.453Z,0
2023-01-13T00:50:01.425Z,0
2023-01-13T00:55:01.528Z,0
2023-01-13T01:00:01.297Z,0
2023-01-13T01:05:01.324Z,0
2023-01-13T01:10:01.344Z,0
2023-01-13T01:15:01.358Z,0
2023-01-13T01:20:01.320Z,0
2023-01-13T01:25:01.319Z,0
2023-01-13T01:30:01.357Z,0
2023-01-13T01:35:01.365Z,0
2023-01-13T01:40:01.349Z,0
2023-01-13T01:45:01.379Z,0
2023-01-13T01:50:01.343Z,0
2023-01-13T01:55:01.358Z,0
2023-01-13T02:00:01.377Z,0
2023-01-13T02:05:01.357Z,0
2023-01-13T02:10:01.327Z,0
2023-01-13T02:15:01.403Z,0
2023-01-13T02:20:01.411Z,0
2023-01-13T02:25:01.381Z,0
2023-01-13T02:30:01.387Z,0
2023-01-13T02:35:01.603Z,0
2023-01-13T02:40:01.451Z,0
2023-01-13T02:45:01.635Z,0
2023-01-13T02:50:01.620Z,0
2023-01-13T02:55:01.518Z,0
2023-01-13T03:00:01.582Z,0
2023-01-13T03:05:01.541Z,0
2023-01-13T03:10:01.411Z,0
2023-01-13T03:15:01.451Z,0
2023-01-13T03:20:01.460Z,0
2023-01-13T03:25:01.390Z,0
2023-01-13T03:30:01.378Z,0
2023-01-13T03:35:01.416Z,0
2023-01-13T03:40:01.450Z,0
2023-01-13T03:45:01.427Z,0
2023-01-13T03:50:01.537Z,0
2023-01-13T03:55:01.499Z,0
2023-01-13T04:00:01.488Z,0
2023-01-13T04:05:01.464Z,0
2023-01-13T04:10:02.063Z,0
2023-01-13T04:15:01.463Z,0
2023-01-13T04:20:01.618Z,0
2023-01-13T04:25:01.520Z,0
2023-01-13T04:30:01.462Z,0
2023-01-13T04:35:01.522Z,0
2023-01-13T04:40:01.460Z,0
2023-01-13T04:45:01.518Z,0
2023-01-13T04:50:01.508Z,0
2023-01-13T04:55:01.544Z,0
2023-01-13T05:00:01.835Z,0
2023-01-13T05:05:01.669Z,0
2023-01-13T05:10:01.609Z,0
2023-01-13T05:15:01.753Z,0
2023-01-13T05:20:01.668Z,0
2023-01-13T05:25:01.667Z,0
2023-01-13T05:30:01.677Z,0
2023-01-13T05:35:01.653Z,0
2023-01-13T05:40:01.733Z,0
2023-01-13T05:45:01.555Z,0
2023-01-13T05:50:01.540Z,0
2023-01-13T05:55:01.555Z,0
2023-01-13T06:00:01.551Z,0
2023-01-13T06:05:01.546Z,0
2023-01-13T06:10:01.563Z,0
2023-01-13T06:15:01.625Z,0
2023-01-13T06:20:01.597Z,0
2023-01-13T06:25:01.626Z,0
2023-01-13T06:30:01.588Z,0
2023-01-13T06:35:02.414Z,0
2023-01-13T06:40:01.596Z,0
2023-01-13T06:45:01.605Z,0
2023-01-13T06:50:01.601Z,0
2023-01-13T06:55:01.621Z,0
2023-01-13T07:00:01.605Z,0
2023-01-13T07:05:01.595Z,0
2023-01-13T07:10:01.599Z,0
2023-01-13T07:15:01.665Z,0
2023-01-13T07:20:01.664Z,0
2023-01-13T07:25:01.651Z,0
2023-01-13T07:30:01.732Z,0
2023-01-13T07:35:01.799Z,0
2023-01-13T07:40:01.772Z,0.09904761904761905
2023-01-13T07:45:01.880Z,0.2740740740740741
2023-01-13T07:50:01.784Z,0.16956613756613756
2023-01-13T07:55:01.633Z,0.5111957671957672
2023-01-13T08:00:01.725Z,1.031015873015873
2023-01-13T08:05:01.654Z,1.552074074074074
2023-01-13T08:10:01.647Z,2.1803597883597883
2023-01-13T08:15:01.703Z,2.858941798941799
2023-01-13T08:20:01.670Z,3.8704126984126987
2023-01-13T08:25:01.794Z,4.962328042328043
2023-01-13T08:30:01.668Z,5.825301587301587
2023-01-13T08:35:01.661Z,6.397396825396825
2023-01-13T08:40:01.674Z,7.532465608465608
2023-01-13T08:45:01.729Z,7.695195767195767
2023-01-13T08:50:01.692Z,8.632052910052911
2023-01-13T08:55:01.766Z,8.54178835978836
2023-01-13T09:00:01.740Z,10.48184126984127
2023-01-13T09:05:01.678Z,14.652179894179895
2023-01-13T09:10:01.770Z,14.714624338624338
2023-01-13T09:15:01.716Z,19.671121693121695
2023-01-13T09:20:01.721Z,22.445375661375664
2023-01-13T09:25:01.800Z,24.378190476190476
2023-01-13T09:30:01.809Z,24.007555555555555
2023-01-13T09:35:02.021Z,24.957492063492065
2023-01-13T09:40:01.851Z,32.646190476190476
2023-01-13T09:45:01.938Z,35.44915343915344
2023-01-13T09:50:01.950Z,38.69240211640212
2023-01-13T09:55:01.891Z,35.60461375661376
2023-01-13T10:00:01.787Z,37.424592592592596
2023-01-13T10:05:01.902Z,38.671301587301585
2023-01-13T10:10:01.769Z,19.894423280423283
2023-01-13T10:15:01.769Z,10.804402116402118
2023-01-13T10:20:01.820Z,7.645661375661375
2023-01-13T10:25:01.757Z,9.601005291005292
2023-01-13T10:30:02.034Z,21.24783068783069
2023-01-13T10:35:01.784Z,28.364973544973548
2023-01-13T10:40:01.803Z,31.357132275132276
2023-01-13T10:45:01.795Z,21.002328042328042
2023-01-13T10:50:01.833Z,29.85124867724868
2023-01-13T10:55:01.847Z,20.104814814814816
2023-01-13T11:00:01.808Z,14.588497354497354
2023-01-13T11:05:01.902Z,7.842433862433864
2023-01-13T11:10:01.868Z,22.181238095238097
2023-01-13T11:15:01.829Z,23.134328042328043
2023-01-13T11:20:01.902Z,14.778751322751324
2023-01-13T11:25:01.970Z,13.419513227513228
2023-01-13T11:30:01.984Z,12.344666666666667
2023-01-13T11:35:02.012Z,16.74271957671958
2023-01-13T11:40:02.014Z,32.40911111111111
2023-01-13T11:45:01.843Z,21.701502645502643
2023-01-13T11:50:01.873Z,13.237904761904762
2023-01-13T11:55:01.823Z,8.537174603174604
2023-01-13T12:00:01.891Z,7.203671957671959
2023-01-13T12:05:01.890Z,7.283873015873016
2023-01-13T12:10:03.427Z,7.863597883597883
2023-01-13T12:15:01.905Z,8.864359788359788
2023-01-13T12:20:01.950Z,9.705312169312169
2023-01-13T12:25:01.881Z,4.273333333333333
2023-01-13T12:30:01.977Z,8.012455026455028
2023-01-13T12:35:01.865Z,7.739121693121693
2023-01-13T12:40:01.883Z,4.148730158730158
2023-01-13T12:45:02.029Z,3.5022645502645497
2023-01-13T12:50:01.888Z,3.8983280423280418
2023-01-13T12:55:01.869Z,3.7781693121693127
2023-01-13T13:00:01.872Z,2.460592592592593
2023-01-13T13:05:01.921Z,2.2671322751322753
2023-01-13T13:15:03.531Z,3.2273968253968257
2023-01-13T13:20:02.143Z,3.8922116402116402
2023-01-13T13:25:02.046Z,3.6237566137566137
2023-01-13T13:30:02.097Z,3.5451640211640214
2023-01-13T13:35:01.942Z,3.113746031746032
2023-01-13T13:40:01.934Z,1.381904761904762
2023-01-13T13:45:05.361Z,0.5932380952380952
2023-01-13T13:50:01.925Z,0.4629417989417989
2023-01-13T13:55:02.011Z,0.3501058201058201
2023-01-13T14:00:02.011Z,0.3338201058201058
2023-01-13T14:05:02.004Z,0.4767724867724868
2023-01-13T14:10:01.906Z,0.47578835978835987
2023-01-13T14:15:01.988Z,0.2783068783068783
2023-01-13T14:20:01.979Z,0.24593650793650795
2023-01-13T14:25:02.012Z,0
2023-01-13T14:30:01.922Z,0.22096296296296294
2023-01-13T14:35:01.974Z,0.3602857142857143
2023-01-13T14:40:01.960Z,0.24861375661375662
2023-01-13T14:45:02.036Z,0.19740740740740742
2023-01-13T14:50:02.027Z,0.058645502645502647
2023-01-13T14:55:02.076Z,0
2023-01-13T15:00:02.176Z,0
2023-01-13T15:05:01.916Z,0
2023-01-13T15:10:01.934Z,0
2023-01-13T15:15:02.003Z,0
2023-01-13T15:20:01.935Z,0
2023-01-13T15:25:01.948Z,0
2023-01-13T15:30:01.960Z,0
2023-01-13T15:35:01.983Z,0
2023-01-13T15:40:01.937Z,0
2023-01-13T15:45:02.027Z,0
2023-01-13T15:50:01.986Z,0
2023-01-13T15:55:01.943Z,0
2023-01-13T16:00:02.018Z,0
2023-01-13T16:05:02.015Z,0
2023-01-13T16:10:02.001Z,0
2023-01-13T16:15:02.081Z,0
2023-01-13T16:20:02.087Z,0
2023-01-13T16:25:02.182Z,0
2023-01-13T16:30:02.366Z,0
2023-01-13T16:35:02.219Z,0
2023-01-13T16:40:02.340Z,0
2023-01-13T16:45:02.190Z,0
2023-01-13T16:50:02.102Z,0
2023-01-13T16:55:02.185Z,0
2023-01-13T17:00:02.118Z,0
2023-01-13T17:05:02.152Z,0
2023-01-13T17:10:02.167Z,0
2023-01-13T17:15:02.245Z,0
2023-01-13T17:20:02.193Z,0
2023-01-13T17:25:02.153Z,0
2023-01-13T17:30:02.197Z,0
2023-01-13T17:35:02.212Z,0
2023-01-13T17:40:02.229Z,0
2023-01-13T17:45:02.205Z,0
2023-01-13T17:50:02.153Z,0
2023-01-13T17:55:02.187Z,0
2023-01-13T18:00:02.330Z,0
2023-01-13T18:05:05.087Z,0
2023-01-13T18:10:02.347Z,0
2023-01-13T18:15:02.443Z,0
2023-01-13T18:20:02.436Z,0
2023-01-13T18:25:02.268Z,0
2023-01-13T18:30:02.312Z,0
2023-01-13T18:35:05.932Z,0
2023-01-13T18:40:02.404Z,0
2023-01-13T18:45:02.192Z,0
2023-01-13T18:50:02.185Z,0
2023-01-13T18:55:02.243Z,0
2023-01-13T19:00:02.354Z,0
2023-01-13T19:05:02.230Z,0
2023-01-13T19:10:02.331Z,0
2023-01-13T19:15:02.290Z,0
2023-01-13T19:20:02.291Z,0
2023-01-13T19:25:02.419Z,0
2023-01-13T19:30:02.790Z,0
2023-01-13T19:35:02.410Z,0
2023-01-13T19:40:02.447Z,0
2023-01-13T19:45:02.451Z,0
2023-01-13T19:50:02.291Z,0
2023-01-13T19:55:02.342Z,0
2023-01-13T20:00:02.411Z,0
2023-01-13T20:05:02.285Z,0
2023-01-13T20:10:02.276Z,0
2023-01-13T20:15:02.420Z,0
2023-01-13T20:20:02.436Z,0
2023-01-13T20:25:02.399Z,0
2023-01-13T20:30:02.435Z,0
2023-01-13T20:35:02.397Z,0
2023-01-13T20:40:02.461Z,0
2023-01-13T20:45:02.425Z,0
2023-01-13T20:50:02.381Z,0
2023-01-13T20:55:02.370Z,0
2023-01-13T21:00:02.430Z,0
2023-01-13T21:05:02.355Z,0
2023-01-13T21:10:02.375Z,0
2023-01-13T21:15:02.688Z,0
2023-01-13T21:20:04.384Z,0
2023-01-13T21:25:02.502Z,0
2023-01-13T21:30:02.520Z,0
2023-01-13T21:35:02.581Z,0
2023-01-13T21:40:02.387Z,0
2023-01-13T21:45:02.421Z,0
2023-01-13T21:50:02.397Z,0
2023-01-13T21:55:02.431Z,0
2023-01-13T22:00:02.367Z,0
2023-01-13T22:05:02.366Z,0
2023-01-13T22:10:02.500Z,0
2023-01-13T22:15:02.423Z,0
2023-01-13T22:20:02.414Z,0
2023-01-13T22:25:02.443Z,0
2023-01-13T22:30:02.376Z,0
2023-01-13T22:35:02.407Z,0
2023-01-13T22:40:02.380Z,0
2023-01-13T22:45:02.532Z,0
2023-01-13T22:50:02.526Z,0
2023-01-13T22:55:02.606Z,0
2023-01-13T23:00:02.611Z,0
2023-01-13T23:05:02.604Z,0
2023-01-13T23:10:02.629Z,0
2023-01-13T23:15:02.658Z,0
2023-01-13T23:20:02.460Z,0
2023-01-13T23:25:02.479Z,0
2023-01-13T23:30:02.473Z,0
2023-01-13T23:35:02.443Z,0
2023-01-13T23:40:02.558Z,0
2023-01-13T23:45:02.521Z,0
2023-01-13T23:50:02.468Z,0
2023-01-13T23:55:02.459Z,0
